createdAt,value
2022-10-02T00:02:27.093Z,3.17
2022-10-02T00:05:04.011Z,4.25
2022-10-02T00:07:43.255Z,1.42
2022-10-02T00:10:26.663Z,3.42
2022-10-02T00:12:58.723Z,1.65
2022-10-02T00:15:32.629Z,1.30
2022-10-02T00:18:04.568Z,7.43
2022-10-02T00:20:46.578Z,1.30
2022-10-02T00:23:41.743Z,2.67
2022-10-02T00:26:24.359Z,1.85
2022-10-02T00:29:29.761Z,5.90
2022-10-02T00:32:12.360Z,1.42
2022-10-02T00:34:56.789Z,3.50
2022-10-02T00:37:43.503Z,1.75
2022-10-02T00:40:13.338Z,3.42
2022-10-02T00:43:03.969Z,3.63
2022-10-02T00:46:04.320Z,6.90
2022-10-02T00:48:43.818Z,1.45
2022-10-02T00:51:43.223Z,1.45
2022-10-02T00:54:25.594Z,2.30
2022-10-02T00:57:18.044Z,1.42
2022-10-02T01:00:01.940Z,2.92
2022-10-02T01:02:32.079Z,1.98
2022-10-02T01:05:02.444Z,2.63
2022-10-02T01:07:30.173Z,1.77
2022-10-02T01:09:57.623Z,1.67
2022-10-02T01:12:25.061Z,2.72
2022-10-02T01:14:52.223Z,1.30
2022-10-02T01:17:26.028Z,2.20
2022-10-02T01:19:54.834Z,2.75
2022-10-02T01:22:43.148Z,4.75
2022-10-02T01:25:10.673Z,3.75
2022-10-02T01:27:39.503Z,1.30
2022-10-02T01:30:09.987Z,1.23
2022-10-02T01:32:42.843Z,1.33
2022-10-02T01:35:10.444Z,2.38
2022-10-02T01:37:41.383Z,2.38
2022-10-02T01:40:22.464Z,1.20
2022-10-02T01:42:51.068Z,3.55
2022-10-02T01:45:28.432Z,1.75
2022-10-02T01:48:20.109Z,2.90
2022-10-02T01:50:56.222Z,1.27
2022-10-02T01:53:37.443Z,2.47
2022-10-02T01:56:31.554Z,1.23
2022-10-02T01:59:11.933Z,3.67
2022-10-02T02:02:05.701Z,4.72
2022-10-02T02:04:50.363Z,5.28
2022-10-02T02:07:28.424Z,1.73
2022-10-02T02:10:10.781Z,2.78
2022-10-02T02:12:47.643Z,1.73
2022-10-02T02:15:26.218Z,9.95
2022-10-02T02:18:03.518Z,2.35
2022-10-02T02:20:36.908Z,4.72
2022-10-02T02:23:16.568Z,1.00
2022-10-02T02:25:48.884Z,1.08
2022-10-02T02:28:20.261Z,4.38
2022-10-02T02:30:51.195Z,1.55
2022-10-02T02:33:25.285Z,0.93
2022-10-02T02:35:56.839Z,2.80
2022-10-02T02:38:31.314Z,2.10
2022-10-02T02:41:06.799Z,1.85
2022-10-02T02:44:14.072Z,1.55
2022-10-02T02:47:06.978Z,1.20
2022-10-02T02:49:44.404Z,4.32
2022-10-02T02:52:22.090Z,1.30
2022-10-02T02:54:55.128Z,3.35
2022-10-02T02:57:44.134Z,1.73
2022-10-02T03:00:15.775Z,2.45
2022-10-02T03:02:43.105Z,4.93
2022-10-02T03:05:16.351Z,1.35
2022-10-02T03:07:55.895Z,7.28
2022-10-02T03:11:03.649Z,2.53
2022-10-02T03:13:55.644Z,4.30
2022-10-02T03:16:31.861Z,1.80
2022-10-02T03:19:16.706Z,2.88
2022-10-02T03:21:55.856Z,3.75
2022-10-02T03:24:38.912Z,2.05
2022-10-02T03:27:48.974Z,3.50
2022-10-02T03:30:26.275Z,3.80
2022-10-02T03:32:56.508Z,4.75
2022-10-02T03:35:25.504Z,1.77
2022-10-02T03:38:00.668Z,4.40
2022-10-02T03:40:28.288Z,1.90
2022-10-02T03:42:58.496Z,2.22
2022-10-02T03:45:49.471Z,2.28
2022-10-02T03:48:14.724Z,2.53
2022-10-02T03:50:41.935Z,2.17
2022-10-02T03:53:17.618Z,4.43
2022-10-02T03:55:55.964Z,4.95
2022-10-02T03:58:23.754Z,5.00
2022-10-02T04:01:00.469Z,4.78
2022-10-02T04:03:33.796Z,2.40
2022-10-02T04:06:19.501Z,2.25
2022-10-02T04:09:02.580Z,2.55
2022-10-02T04:11:48.479Z,2.67
2022-10-02T04:14:24.812Z,3.47
2022-10-02T04:17:05.840Z,3.83
2022-10-02T04:19:56.981Z,2.25
2022-10-02T04:22:37.008Z,2.50
2022-10-02T04:25:14.604Z,2.20
2022-10-02T04:27:51.453Z,4.90
2022-10-02T04:30:20.573Z,2.13
2022-10-02T04:32:48.539Z,4.72
2022-10-02T04:35:38.054Z,4.40
2022-10-02T04:38:40.642Z,5.45
2022-10-02T04:41:22.394Z,1.30
2022-10-02T04:44:25.769Z,5.65
2022-10-02T04:47:34.205Z,2.63
2022-10-02T04:50:08.706Z,1.67
2022-10-02T04:52:57.200Z,4.40
2022-10-02T04:55:42.004Z,2.78
2022-10-02T04:58:23.364Z,3.75
2022-10-02T05:01:09.368Z,3.03
2022-10-02T05:04:04.047Z,1.50
2022-10-02T05:06:44.759Z,4.13
2022-10-02T05:09:37.958Z,2.53
2022-10-02T05:12:12.316Z,2.90
2022-10-02T05:15:16.854Z,3.33
2022-10-02T05:17:57.825Z,3.10
2022-10-02T05:20:48.088Z,2.42
2022-10-02T05:23:43.345Z,3.03
2022-10-02T05:26:32.084Z,1.15
2022-10-02T05:29:20.985Z,3.20
2022-10-02T05:32:05.805Z,5.38
2022-10-02T05:34:51.189Z,1.95
2022-10-02T05:37:39.622Z,2.45
2022-10-02T05:40:31.809Z,3.30
2022-10-02T05:43:01.838Z,2.05
2022-10-02T05:45:38.068Z,1.55
2022-10-02T05:50:41.913Z,2.20
2022-10-02T05:53:19.822Z,4.20
2022-10-02T05:55:53.789Z,2.60
2022-10-02T05:58:37.044Z,2.25
2022-10-02T06:01:16.390Z,2.70
2022-10-02T06:03:51.646Z,4.57
2022-10-02T06:06:29.469Z,4.95
2022-10-02T06:09:03.446Z,1.33
2022-10-02T06:11:36.344Z,2.72
2022-10-02T06:14:14.489Z,1.48
2022-10-02T06:16:52.001Z,2.10
2022-10-02T06:19:32.703Z,3.55
2022-10-02T06:22:08.432Z,3.50
2022-10-02T06:24:44.013Z,2.58
2022-10-02T06:27:24.659Z,6.90
2022-10-02T06:30:00.093Z,2.30
2022-10-02T06:32:44.076Z,2.60
2022-10-02T06:35:16.918Z,5.75
2022-10-02T06:37:57.388Z,7.57
2022-10-02T06:40:39.670Z,5.65
2022-10-02T06:43:23.163Z,5.68
2022-10-02T06:46:07.375Z,5.85
2022-10-02T06:48:59.533Z,3.10
2022-10-02T06:51:38.800Z,6.03
2022-10-02T06:54:06.263Z,2.63
2022-10-02T06:56:46.938Z,3.50
2022-10-02T06:59:27.329Z,2.72
2022-10-02T07:02:03.635Z,11.23
2022-10-02T07:04:55.438Z,7.55
2022-10-02T07:08:04.430Z,3.60
2022-10-02T07:10:53.148Z,7.60
2022-10-02T07:13:27.925Z,5.95
2022-10-02T07:16:27.735Z,3.10
2022-10-02T07:19:19.418Z,6.85
2022-10-02T07:22:20.312Z,9.13
2022-10-02T07:25:16.261Z,6.35
2022-10-02T07:27:56.132Z,4.65
2022-10-02T07:30:23.611Z,7.25
2022-10-02T07:33:19.742Z,2.25
2022-10-02T07:36:00.003Z,4.60
2022-10-02T07:39:05.762Z,4.75
2022-10-02T07:41:38.761Z,4.47
2022-10-02T07:44:14.860Z,2.45
2022-10-02T07:49:37.756Z,5.50
2022-10-02T07:52:07.868Z,3.92
2022-10-02T07:54:48.060Z,2.10
2022-10-02T07:57:41.670Z,5.60
2022-10-02T08:00:15.818Z,5.85
2022-10-02T08:02:52.273Z,3.20
2022-10-02T08:05:33.510Z,6.97
2022-10-02T08:08:07.269Z,3.75
2022-10-02T08:10:41.989Z,2.63
2022-10-02T08:13:23.798Z,8.35
2022-10-02T08:15:56.516Z,5.18
2022-10-02T08:18:56.798Z,4.63
2022-10-02T08:21:26.378Z,3.78
2022-10-02T08:24:02.251Z,8.05
2022-10-02T08:26:56.062Z,9.65
2022-10-02T08:29:34.951Z,10.57
2022-10-02T08:32:03.035Z,5.32
2022-10-02T08:34:32.617Z,4.82
2022-10-02T08:37:24.541Z,4.15
2022-10-02T08:40:19.451Z,3.28
2022-10-02T08:43:13.611Z,10.50
2022-10-02T08:46:03.239Z,4.55
2022-10-02T08:48:55.630Z,5.10
2022-10-02T08:51:33.337Z,3.03
2022-10-02T08:54:32.617Z,6.32
2022-10-02T08:57:12.817Z,4.65
2022-10-02T09:00:10.417Z,5.20
2022-10-02T09:03:05.950Z,1.73
2022-10-02T09:06:13.164Z,9.38
2022-10-02T09:08:46.943Z,13.75
2022-10-02T09:11:29.568Z,10.02
2022-10-02T09:14:10.179Z,9.18
2022-10-02T09:16:58.748Z,9.18
2022-10-02T09:19:59.909Z,7.38
2022-10-02T09:22:54.197Z,6.53
2022-10-02T09:25:46.552Z,13.25
2022-10-02T09:28:43.756Z,8.18
2022-10-02T09:31:44.756Z,12.05
2022-10-02T09:34:50.478Z,7.93
2022-10-02T09:37:41.448Z,3.95
2022-10-02T09:40:21.342Z,9.23
2022-10-02T09:43:03.907Z,6.78
2022-10-02T09:45:37.361Z,2.83
2022-10-02T09:48:18.201Z,2.40
2022-10-02T09:51:13.016Z,3.95
2022-10-02T09:53:52.404Z,4.60
2022-10-02T09:57:04.467Z,3.92
2022-10-02T09:59:54.896Z,3.30
2022-10-02T10:02:49.794Z,5.07
2022-10-02T10:05:35.918Z,4.50
2022-10-02T10:08:32.412Z,7.20
2022-10-02T10:11:32.437Z,12.73
2022-10-02T10:14:38.176Z,7.05
2022-10-02T10:17:21.624Z,2.53
2022-10-02T10:20:09.968Z,10.30
2022-10-02T10:22:59.127Z,23.00
2022-10-02T10:25:43.954Z,33.10
2022-10-02T10:28:28.799Z,11.65
2022-10-02T10:31:31.465Z,5.47
2022-10-02T10:34:34.046Z,4.10
2022-10-02T10:37:24.356Z,7.35
2022-10-02T10:40:10.699Z,5.50
2022-10-02T10:43:08.676Z,1.95
2022-10-02T10:45:54.405Z,7.32
2022-10-02T10:48:49.530Z,3.88
2022-10-02T10:51:54.176Z,2.25
2022-10-02T10:54:51.989Z,6.47
2022-10-02T10:57:41.656Z,4.50
2022-10-02T11:00:15.760Z,4.53
2022-10-02T11:03:10.957Z,4.80
2022-10-02T11:06:05.737Z,5.38
2022-10-02T11:09:08.236Z,3.53
2022-10-02T11:11:57.819Z,3.80
2022-10-02T11:15:03.648Z,2.88
2022-10-02T11:17:48.563Z,10.98
2022-10-02T11:20:35.929Z,5.80
2022-10-02T11:23:09.333Z,4.32
2022-10-02T11:25:59.289Z,6.45
2022-10-02T11:28:43.380Z,9.63
2022-10-02T11:31:48.113Z,5.00
2022-10-02T11:34:24.796Z,0.75
2022-10-02T11:37:18.462Z,2.90
2022-10-02T11:39:54.641Z,3.60
2022-10-02T11:43:11.729Z,3.90
2022-10-02T11:46:02.906Z,2.67
2022-10-02T11:48:36.302Z,3.92
2022-10-02T11:51:33.618Z,7.43
2022-10-02T11:54:19.681Z,3.72
2022-10-02T11:57:01.786Z,2.72
2022-10-02T11:59:47.884Z,6.28
2022-10-02T12:02:27.328Z,4.32
2022-10-02T12:05:16.551Z,7.35
2022-10-02T12:08:07.162Z,4.05
2022-10-02T12:10:44.707Z,8.32
2022-10-02T12:13:31.332Z,4.25
2022-10-02T12:16:20.174Z,6.88
2022-10-02T12:19:21.025Z,4.80
2022-10-02T12:22:40.377Z,5.72
2022-10-02T12:26:11.447Z,4.82
2022-10-02T12:28:56.164Z,3.70
2022-10-02T12:31:51.667Z,8.85
2022-10-02T12:34:25.081Z,2.73
2022-10-02T12:36:58.505Z,4.43
2022-10-02T12:39:49.511Z,6.85
2022-10-02T12:42:44.330Z,10.32
2022-10-02T12:45:28.474Z,5.55
2022-10-02T12:47:58.941Z,4.13
2022-10-02T12:50:54.029Z,1.63
2022-10-02T12:53:46.401Z,3.78
2022-10-02T12:56:46.109Z,4.55
2022-10-02T12:59:42.928Z,3.72
2022-10-02T13:02:49.173Z,5.50
2022-10-02T13:05:32.399Z,6.75
2022-10-02T13:08:25.328Z,4.63
2022-10-02T13:11:01.758Z,4.50
2022-10-02T13:13:35.669Z,6.35
2022-10-02T13:16:58.246Z,2.63
2022-10-02T13:19:40.172Z,4.88
2022-10-02T13:22:11.209Z,1.90
2022-10-02T13:25:18.195Z,5.55
2022-10-02T13:28:13.757Z,6.95
2022-10-02T13:31:05.977Z,3.07
2022-10-02T13:34:06.519Z,5.70
2022-10-02T13:37:15.771Z,8.80
2022-10-02T13:40:06.352Z,4.93
2022-10-02T13:43:06.299Z,2.88
2022-10-02T13:45:39.317Z,4.72
2022-10-02T13:48:47.947Z,3.88
2022-10-02T13:51:27.819Z,17.02
2022-10-02T13:54:18.269Z,7.80
2022-10-02T13:57:12.729Z,4.50
2022-10-02T14:00:02.281Z,2.25
2022-10-02T14:03:04.716Z,2.75
2022-10-02T14:05:38.528Z,5.97
2022-10-02T14:08:31.795Z,4.43
2022-10-02T14:11:29.239Z,5.00
2022-10-02T14:14:12.407Z,2.97
2022-10-02T14:17:08.594Z,2.08
2022-10-02T14:20:03.021Z,3.60
2022-10-02T14:22:39.538Z,7.45
2022-10-02T14:25:34.450Z,7.90
2022-10-02T14:28:04.743Z,7.13
2022-10-02T14:31:04.126Z,7.05
2022-10-02T14:33:52.938Z,8.13
2022-10-02T14:36:25.956Z,3.10
2022-10-02T14:39:18.901Z,6.72
2022-10-02T14:41:56.071Z,4.68
2022-10-02T14:44:34.618Z,6.47
2022-10-02T14:47:13.280Z,6.35
2022-10-02T14:49:49.186Z,4.38
2022-10-02T14:52:34.753Z,6.32
2022-10-02T14:55:51.368Z,6.50
2022-10-02T14:58:18.649Z,7.72
2022-10-02T15:00:52.104Z,5.22
2022-10-02T15:03:56.924Z,7.55
2022-10-02T15:06:56.679Z,8.75
2022-10-02T15:09:26.472Z,7.50
2022-10-02T15:12:04.641Z,8.55
2022-10-02T15:14:50.408Z,7.78
2022-10-02T15:17:49.011Z,9.35
2022-10-02T15:20:43.793Z,10.93
2022-10-02T15:23:21.279Z,5.93
2022-10-02T15:26:16.082Z,5.93
2022-10-02T15:28:51.828Z,10.00
2022-10-02T15:31:55.828Z,12.63
2022-10-02T15:34:47.911Z,12.52
2022-10-02T15:37:43.457Z,7.53
2022-10-02T15:40:42.794Z,11.07
2022-10-02T15:43:16.610Z,10.32
2022-10-02T15:46:11.676Z,19.30
2022-10-02T15:49:04.939Z,34.35
2022-10-02T15:51:59.656Z,36.35
2022-10-02T15:54:54.524Z,20.60
2022-10-02T15:57:53.650Z,11.98
2022-10-02T16:00:25.628Z,28.15
2022-10-02T16:02:57.611Z,21.25
2022-10-02T16:05:30.982Z,10.23
2022-10-02T16:08:23.676Z,5.75
2022-10-02T16:11:32.667Z,5.53
2022-10-02T16:14:37.041Z,6.50
2022-10-02T16:17:16.469Z,8.77
2022-10-02T16:20:22.772Z,9.30
2022-10-02T16:23:09.508Z,8.95
2022-10-02T16:26:10.852Z,6.55
2022-10-02T16:28:55.809Z,9.18
2022-10-02T16:31:57.287Z,10.27
2022-10-02T16:34:42.482Z,8.73
2022-10-02T16:37:27.481Z,9.68
2022-10-02T16:40:03.720Z,11.93
2022-10-02T16:42:53.489Z,14.38
2022-10-02T16:45:33.223Z,13.32
2022-10-02T16:48:10.367Z,10.13
2022-10-02T16:51:05.540Z,9.55
2022-10-02T16:53:44.915Z,16.02
2022-10-02T16:56:55.273Z,15.30
2022-10-02T16:59:28.546Z,12.15
2022-10-02T17:02:18.313Z,15.40
2022-10-02T17:04:58.562Z,12.20
2022-10-02T17:07:50.937Z,9.55
2022-10-02T17:10:22.717Z,11.68
2022-10-02T17:13:01.159Z,7.88
2022-10-02T17:15:40.731Z,10.20
2022-10-02T17:18:47.900Z,12.70
2022-10-02T17:23:58.956Z,5.43
2022-10-02T17:26:40.974Z,12.25
2022-10-02T17:29:26.868Z,15.25
2022-10-02T17:31:58.736Z,14.60
2022-10-02T17:34:27.444Z,14.82
2022-10-02T17:37:09.905Z,13.32
2022-10-02T17:39:50.917Z,11.05
2022-10-02T17:42:41.990Z,9.05
2022-10-02T17:45:31.338Z,5.43
2022-10-02T17:48:15.718Z,5.75
2022-10-02T17:50:57.651Z,9.30
2022-10-02T17:53:52.647Z,4.30
2022-10-02T17:56:40.601Z,7.53
2022-10-02T17:59:26.358Z,8.23
2022-10-02T18:02:00.071Z,7.07
2022-10-02T18:04:49.207Z,7.88
2022-10-02T18:07:38.579Z,6.10
2022-10-02T18:10:34.211Z,15.73
2022-10-02T18:13:20.347Z,8.23
2022-10-02T18:16:22.481Z,10.27
2022-10-02T18:19:21.875Z,9.10
2022-10-02T18:22:16.667Z,10.25
2022-10-02T18:24:55.448Z,7.15
2022-10-02T18:27:48.725Z,7.80
2022-10-02T18:30:19.581Z,6.05
2022-10-02T18:33:05.150Z,5.63
2022-10-02T18:35:36.527Z,9.63
2022-10-02T18:38:20.277Z,6.18
2022-10-02T18:40:56.180Z,13.20
2022-10-02T18:43:47.856Z,12.65
2022-10-02T18:46:26.481Z,6.72
2022-10-02T18:49:23.038Z,10.60
2022-10-02T18:54:45.562Z,31.23
2022-10-02T18:57:24.997Z,33.40
2022-10-02T19:00:05.067Z,26.75
2022-10-02T19:02:45.689Z,22.25
2022-10-02T19:05:22.776Z,17.27
2022-10-02T19:08:02.992Z,19.15
2022-10-02T19:10:33.066Z,10.65
2022-10-02T19:13:17.977Z,10.55
2022-10-02T19:15:50.870Z,11.68
2022-10-02T19:18:39.870Z,16.10
2022-10-02T19:21:13.731Z,12.13
2022-10-02T19:23:51.241Z,12.30
2022-10-02T19:26:25.437Z,7.43
2022-10-02T19:28:59.108Z,8.07
2022-10-02T19:31:29.444Z,14.45
2022-10-02T19:34:02.768Z,17.02
2022-10-02T19:36:43.019Z,8.50
2022-10-02T19:39:32.999Z,8.77
2022-10-02T19:42:06.967Z,12.60
2022-10-02T19:44:44.770Z,11.77
2022-10-02T19:47:49.984Z,8.93
2022-10-02T19:50:38.231Z,7.32
2022-10-02T19:53:16.780Z,9.93
2022-10-02T19:55:46.620Z,7.80
2022-10-02T19:58:20.709Z,5.55
2022-10-02T20:00:53.121Z,11.35
2022-10-02T20:03:23.539Z,11.15
2022-10-02T20:05:55.430Z,13.40
2022-10-02T20:08:29.249Z,7.00
2022-10-02T20:11:08.486Z,9.05
2022-10-02T20:13:42.311Z,8.25
2022-10-02T20:16:37.392Z,9.05
2022-10-02T20:19:07.885Z,8.25
2022-10-02T20:21:46.948Z,8.48
2022-10-02T20:24:45.848Z,7.85
2022-10-02T20:27:19.478Z,13.30
2022-10-02T20:29:54.609Z,8.20
2022-10-02T20:32:28.794Z,8.90
2022-10-02T20:35:21.977Z,7.15
2022-10-02T20:37:54.738Z,4.35
2022-10-02T20:40:27.768Z,1.85
2022-10-02T20:43:22.335Z,3.03
2022-10-02T20:46:12.018Z,5.43
2022-10-02T20:49:19.588Z,2.80
2022-10-02T20:55:08.497Z,2.92
2022-10-02T20:58:00.063Z,3.00
2022-10-02T21:00:43.268Z,3.53
2022-10-02T21:03:29.462Z,9.25
2022-10-02T21:06:14.088Z,6.60
2022-10-02T21:09:15.339Z,6.18
2022-10-02T21:12:05.672Z,6.68
2022-10-02T21:14:53.745Z,6.22
2022-10-02T21:18:07.197Z,13.43
2022-10-02T21:21:05.122Z,4.20
2022-10-02T21:24:06.359Z,4.88
2022-10-02T21:27:11.011Z,3.47
2022-10-02T21:30:02.987Z,5.85
2022-10-02T21:33:00.039Z,11.75
2022-10-02T21:35:56.077Z,7.90
2022-10-02T21:38:51.197Z,8.95
2022-10-02T21:41:37.111Z,7.90
2022-10-02T21:44:24.588Z,3.50
2022-10-02T21:47:18.987Z,4.32
2022-10-02T21:50:22.657Z,7.18
2022-10-02T21:53:11.781Z,2.92
2022-10-02T21:55:58.513Z,5.13
2022-10-02T21:59:08.061Z,4.85
2022-10-02T22:02:07.295Z,2.45
2022-10-02T22:05:09.080Z,6.72
2022-10-02T22:07:49.921Z,3.45
2022-10-02T22:10:55.896Z,3.70
2022-10-02T22:13:40.779Z,3.63
2022-10-02T22:16:11.113Z,6.70
2022-10-02T22:19:19.002Z,3.85
2022-10-02T22:22:21.187Z,4.15
2022-10-02T22:25:09.942Z,4.50
2022-10-02T22:28:14.935Z,2.90
2022-10-02T22:31:11.995Z,1.77
2022-10-02T22:34:01.171Z,8.30
2022-10-02T22:36:43.146Z,1.83
2022-10-02T22:39:42.818Z,6.18
2022-10-02T22:42:45.877Z,7.95
2022-10-02T22:45:23.010Z,2.88
2022-10-02T22:48:01.257Z,3.92
2022-10-02T22:50:36.112Z,4.70
2022-10-02T22:53:29.862Z,10.02
2022-10-02T22:55:58.551Z,5.07
2022-10-02T22:58:42.186Z,7.55
2022-10-02T23:01:27.176Z,3.15
2022-10-02T23:04:50.271Z,4.30
2022-10-02T23:07:28.939Z,8.50
2022-10-02T23:10:14.201Z,3.08
2022-10-02T23:12:54.048Z,2.15
2022-10-02T23:15:42.971Z,4.25
2022-10-02T23:18:25.276Z,4.07
2022-10-02T23:21:16.846Z,5.97
2022-10-02T23:24:02.797Z,3.55
2022-10-02T23:26:33.477Z,5.75
2022-10-02T23:29:15.047Z,5.22
2022-10-02T23:31:54.461Z,11.45
2022-10-02T23:34:49.756Z,6.53
2022-10-02T23:37:25.701Z,5.13
2022-10-02T23:40:47.326Z,3.78
2022-10-02T23:43:24.737Z,9.10
2022-10-02T23:46:04.171Z,13.70
2022-10-02T23:48:32.725Z,6.28
2022-10-02T23:51:32.116Z,4.82
2022-10-02T23:54:11.308Z,6.22
2022-10-02T23:57:02.511Z,8.07
2022-10-02T23:59:55.312Z,8.63
